Time;durP1;ratioP1;P1;durP2;ratioP2;P2;SDS_P1;SDS_P2;PMS_P1;PMS_P2;Temp;Humidity;BMP_temperature;BMP_pressure;BME280_temperature;BME280_humidity;BME280_pressure;Samples;Min_cycle;Max_cycle;Signal;HPM_P1;HPM_P2
2023/11/22 00:00:00;;;;;;;30.20;11.98;;;4.80;99.90;;;;;;4860657;29;20069;-77
2023/11/22 00:02:29;;;;;;;31.55;12.75;;;4.80;99.90;;;;;;4849774;29;20059;-78
2023/11/22 00:04:57;;;;;;;27.05;10.98;;;4.80;99.90;;;;;;4852359;29;20092;-78
2023/11/22 00:07:28;;;;;;;27.95;12.20;;;4.80;99.90;;;;;;4833799;29;20064;-77
2023/11/22 00:09:59;;;;;;;29.30;11.10;;;4.90;99.90;;;;;;4850444;29;20054;-77
2023/11/22 00:12:27;;;;;;;26.98;10.63;;;4.90;99.90;;;;;;4850184;29;20051;-76
2023/11/22 00:14:56;;;;;;;27.77;11.38;;;4.90;99.90;;;;;;4858770;29;20152;-77
2023/11/22 00:17:25;;;;;;;26.23;11.23;;;4.80;99.90;;;;;;4850632;29;20057;-77
2023/11/22 00:19:53;;;;;;;23.35;10.30;;;4.90;99.90;;;;;;4847997;29;20049;-73
2023/11/22 00:22:21;;;;;;;30.50;11.50;;;4.80;99.90;;;;;;4864360;29;20078;-74
2023/11/22 00:24:51;;;;;;;26.25;9.85;;;4.70;99.90;;;;;;4872330;29;20144;-75
2023/11/22 00:27:21;;;;;;;25.85;11.23;;;4.70;99.90;;;;;;4847953;29;21015;-74
2023/11/22 00:29:50;;;;;;;25.65;11.02;;;4.70;99.90;;;;;;4842129;29;22796;-74
2023/11/22 00:32:19;;;;;;;28.08;10.40;;;4.70;99.90;;;;;;4837643;29;20534;-74
2023/11/22 00:34:48;;;;;;;25.77;10.55;;;4.80;99.90;;;;;;4850534;29;20072;-75
2023/11/22 00:37:17;;;;;;;25.70;10.65;;;4.70;99.90;;;;;;4848407;29;23390;-74
2023/11/22 00:39:45;;;;;;;26.08;10.00;;;4.70;99.90;;;;;;4851333;29;20052;-73
2023/11/22 00:42:13;;;;;;;26.77;10.27;;;4.60;99.90;;;;;;4855400;29;20065;-74
2023/11/22 00:44:43;;;;;;;29.20;11.23;;;4.60;99.90;;;;;;4854662;29;20063;-74
2023/11/22 00:47:11;;;;;;;23.55;9.55;;;4.70;99.90;;;;;;4850482;29;20060;-74
2023/11/22 00:49:40;;;;;;;26.75;10.40;;;4.70;99.90;;;;;;4843864;29;20056;-74
2023/11/22 00:52:08;;;;;;;25.17;9.98;;;4.70;99.90;;;;;;4849183;29;20099;-75
2023/11/22 00:54:37;;;;;;;28.63;9.75;;;4.70;99.90;;;;;;4836661;29;20133;-74
2023/11/22 00:57:06;;;;;;;23.90;8.90;;;4.60;99.90;;;;;;4848928;29;20060;-74
2023/11/22 00:59:35;;;;;;;25.40;10.32;;;4.60;99.90;;;;;;4847064;29;20056;-75
2023/11/22 01:02:05;;;;;;;26.42;9.77;;;4.70;99.90;;;;;;4860191;29;20448;-74
2023/11/22 01:04:36;;;;;;;26.75;9.70;;;4.70;99.90;;;;;;4868733;29;20077;-74
2023/11/22 01:07:05;;;;;;;23.40;9.23;;;4.70;99.90;;;;;;4850514;29;20053;-74
2023/11/22 01:09:33;;;;;;;22.90;9.15;;;4.60;99.90;;;;;;4861538;29;20059;-74
2023/11/22 01:12:02;;;;;;;22.70;9.32;;;4.60;99.90;;;;;;4849913;29;20115;-74
2023/11/22 01:14:31;;;;;;;23.20;9.45;;;4.70;99.90;;;;;;4843006;29;20061;-74
2023/11/22 01:16:59;;;;;;;21.63;9.30;;;4.60;99.90;;;;;;4853050;29;20064;-74
2023/11/22 01:19:29;;;;;;;27.13;10.90;;;4.70;99.90;;;;;;4837599;29;20304;-74
2023/11/22 01:21:57;;;;;;;20.02;8.60;;;4.70;99.90;;;;;;4849283;29;20053;-75
2023/11/22 01:24:28;;;;;;;20.60;8.23;;;4.70;99.90;;;;;;4839454;29;20044;-73
2023/11/22 01:26:56;;;;;;;23.20;7.97;;;4.70;99.90;;;;;;4851555;29;20061;-74
2023/11/22 01:29:24;;;;;;;22.65;9.68;;;4.70;99.90;;;;;;4849238;29;20133;-74
2023/11/22 01:31:53;;;;;;;22.92;8.95;;;4.70;99.90;;;;;;4837443;29;20061;-73
2023/11/22 01:34:21;;;;;;;25.02;9.63;;;4.80;99.90;;;;;;4849172;29;20518;-73
2023/11/22 01:36:52;;;;;;;29.35;10.65;;;4.70;99.90;;;;;;4851484;29;21946;-74
2023/11/22 01:39:20;;;;;;;26.25;10.60;;;4.70;99.90;;;;;;4852619;29;20080;-72
2023/11/22 01:41:49;;;;;;;24.20;9.90;;;4.70;99.90;;;;;;4850395;29;20068;-72
2023/11/22 01:44:19;;;;;;;25.60;9.45;;;4.70;99.90;;;;;;4851898;29;20142;-73
2023/11/22 01:46:48;;;;;;;26.77;10.60;;;4.70;99.90;;;;;;4851544;29;20479;-73
2023/11/22 01:49:16;;;;;;;27.13;10.15;;;4.70;99.90;;;;;;4835818;29;20569;-73
2023/11/22 01:51:45;;;;;;;27.92;11.25;;;4.70;99.90;;;;;;4843408;29;20061;-73
2023/11/22 01:54:16;;;;;;;27.67;10.25;;;4.60;99.90;;;;;;4851844;29;20073;-72
2023/11/22 01:56:46;;;;;;;28.15;12.43;;;4.70;99.90;;;;;;4852491;29;20148;-74
2023/11/22 01:59:15;;;;;;;27.85;10.30;;;4.70;99.90;;;;;;4845039;29;20164;-72
2023/11/22 02:01:44;;;;;;;28.42;9.90;;;4.70;99.90;;;;;;4857815;29;20045;-74
2023/11/22 02:04:13;;;;;;;27.58;11.90;;;4.60;99.90;;;;;;4849215;29;20056;-73
2023/11/22 02:06:42;;;;;;;28.00;10.50;;;4.60;99.90;;;;;;4838239;29;20117;-74
2023/11/22 02:09:15;;;;;;;29.05;11.38;;;4.60;99.90;;;;;;4849896;29;20049;-74
2023/11/22 02:11:47;;;;;;;28.30;10.50;;;4.70;99.90;;;;;;4849218;29;20068;-74
2023/11/22 02:14:16;;;;;;;28.92;10.23;;;4.60;99.90;;;;;;4849310;29;20058;-73
2023/11/22 02:16:45;;;;;;;29.52;11.52;;;4.50;99.90;;;;;;4850280;29;20180;-74
2023/11/22 02:19:16;;;;;;;29.05;10.65;;;4.40;99.90;;;;;;4851833;29;20141;-74
2023/11/22 02:21:45;;;;;;;27.08;10.35;;;4.40;99.90;;;;;;4850522;29;20053;-74
2023/11/22 02:24:15;;;;;;;31.38;10.75;;;4.50;99.90;;;;;;4858355;29;20061;-74
2023/11/22 02:26:46;;;;;;;29.85;10.85;;;4.50;99.90;;;;;;4849567;29;20056;-73
2023/11/22 02:29:15;;;;;;;30.35;10.68;;;4.60;99.90;;;;;;4850613;29;20057;-73
2023/11/22 02:31:44;;;;;;;30.50;11.45;;;4.50;99.90;;;;;;4858937;29;20114;-74
2023/11/22 02:34:12;;;;;;;30.85;12.20;;;4.30;99.90;;;;;;4848046;29;20061;-75
2023/11/22 02:36:44;;;;;;;24.67;10.10;;;4.40;99.90;;;;;;4857237;29;20057;-73
2023/11/22 02:39:38;;;;;;;28.85;11.77;;;4.40;99.90;;;;;;4849382;29;20067;-72
2023/11/22 02:42:06;;;;;;;26.15;10.48;;;4.40;99.90;;;;;;4848946;29;20069;-73
2023/11/22 02:44:34;;;;;;;24.88;10.90;;;4.40;99.90;;;;;;4837397;29;20058;-73
2023/11/22 02:47:04;;;;;;;26.17;10.63;;;4.50;99.90;;;;;;4850126;29;20068;-73
2023/11/22 02:49:33;;;;;;;23.30;9.63;;;4.50;99.90;;;;;;4862293;29;20517;-73
2023/11/22 02:52:02;;;;;;;26.38;10.95;;;4.50;99.90;;;;;;4854070;29;22609;-74
2023/11/22 02:54:31;;;;;;;26.35;11.05;;;4.60;99.90;;;;;;4834473;29;20088;-74
2023/11/22 02:57:00;;;;;;;23.73;10.18;;;4.60;99.90;;;;;;4847021;29;20049;-73
2023/11/22 02:59:28;;;;;;;29.48;11.48;;;4.50;99.90;;;;;;4860856;29;20766;-73
2023/11/22 03:01:57;;;;;;;26.45;11.23;;;4.40;99.90;;;;;;4832656;29;20045;-74
2023/11/22 03:04:26;;;;;;;33.58;12.65;;;4.40;99.90;;;;;;4852015;29;20525;-73
2023/11/22 03:06:55;;;;;;;32.80;13.38;;;4.40;99.90;;;;;;4833667;29;20216;-73
2023/11/22 03:09:23;;;;;;;33.58;11.60;;;4.50;99.90;;;;;;4849934;29;22712;-74
2023/11/22 03:11:53;;;;;;;31.88;12.18;;;4.60;99.90;;;;;;4839031;29;20061;-74
2023/11/22 03:14:22;;;;;;;32.47;12.20;;;4.60;99.90;;;;;;4833810;29;20067;-75
2023/11/22 03:16:51;;;;;;;32.00;13.20;;;4.40;99.90;;;;;;4847994;29;22676;-73
2023/11/22 03:19:20;;;;;;;28.50;10.90;;;4.40;99.90;;;;;;4848330;29;20057;-75
2023/11/22 03:21:48;;;;;;;28.50;9.23;;;4.30;99.90;;;;;;4845871;29;20069;-74
2023/11/22 03:24:17;;;;;;;26.40;11.10;;;4.40;99.90;;;;;;4846555;29;20224;-73
2023/11/22 03:26:45;;;;;;;24.73;9.38;;;4.30;99.90;;;;;;4849061;29;20056;-73
2023/11/22 03:29:18;;;;;;;19.83;8.90;;;4.30;99.90;;;;;;4833272;29;20094;-74
2023/11/22 03:31:47;;;;;;;;;;;4.30;99.90;;;;;;4851034;29;20049;-72
2023/11/22 03:34:16;;;;;;;19.88;8.15;;;4.30;99.90;;;;;;4850022;29;19939;-74
2023/11/22 03:36:44;;;;;;;19.15;8.70;;;4.40;99.90;;;;;;4849243;29;20049;-73
2023/11/22 03:39:14;;;;;;;22.05;8.77;;;4.40;99.90;;;;;;4823193;29;20056;-74
2023/11/22 03:41:43;;;;;;;22.42;8.75;;;4.40;99.90;;;;;;4851750;29;20450;-72
2023/11/22 03:44:11;;;;;;;16.70;8.63;;;4.40;99.90;;;;;;4847923;29;20202;-74
2023/11/22 03:46:41;;;;;;;21.48;8.70;;;4.40;99.90;;;;;;4851177;29;20144;-72
2023/11/22 03:49:10;;;;;;;19.25;9.38;;;4.30;99.90;;;;;;4848945;29;20144;-73
2023/11/22 03:51:40;;;;;;;17.98;8.00;;;4.30;99.90;;;;;;4850935;29;20057;-78
2023/11/22 03:54:10;;;;;;;18.33;8.13;;;4.40;99.90;;;;;;4850571;29;20057;-78
2023/11/22 03:56:39;;;;;;;17.48;7.47;;;4.30;99.90;;;;;;4859626;29;20057;-76
2023/11/22 03:59:08;;;;;;;17.27;7.05;;;4.30;99.90;;;;;;4855048;29;20064;-78
2023/11/22 04:01:36;;;;;;;13.52;6.82;;;4.20;99.90;;;;;;4841266;29;20064;-78
2023/11/22 04:04:08;;;;;;;15.48;7.65;;;4.20;99.90;;;;;;4851519;29;20088;-79
2023/11/22 04:06:36;;;;;;;13.40;6.25;;;4.20;99.90;;;;;;4855838;29;20060;-78
2023/11/22 04:09:05;;;;;;;15.68;6.68;;;4.30;99.90;;;;;;4876250;29;20048;-78
2023/11/22 04:11:34;;;;;;;14.27;6.90;;;4.30;99.90;;;;;;4870574;29;20061;-76
2023/11/22 04:14:03;;;;;;;16.33;7.65;;;4.20;99.90;;;;;;4853394;29;22261;-78
2023/11/22 04:16:32;;;;;;;15.32;7.85;;;4.20;99.90;;;;;;4860459;29;20055;-77
2023/11/22 04:19:00;;;;;;;14.48;6.25;;;4.10;99.90;;;;;;4843177;29;20057;-77
2023/11/22 04:21:30;;;;;;;16.15;6.78;;;4.20;99.90;;;;;;4874179;29;20056;-76
2023/11/22 04:23:59;;;;;;;14.52;6.90;;;4.50;99.90;;;;;;4860893;29;20235;-78
2023/11/22 04:26:27;;;;;;;18.15;7.88;;;4.20;99.90;;;;;;4864473;29;20052;-77
2023/11/22 04:28:56;;;;;;;14.45;6.95;;;4.20;99.90;;;;;;4860574;29;20041;-77
2023/11/22 04:31:24;;;;;;;14.75;6.50;;;4.30;99.90;;;;;;4848440;29;20133;-78
2023/11/22 04:33:59;;;;;;;16.40;6.72;;;4.30;99.90;;;;;;4854499;29;20077;-76
2023/11/22 04:36:38;;;;;;;16.48;7.88;;;4.40;99.90;;;;;;4854876;29;20049;-77
2023/11/22 04:39:27;;;;;;;17.25;7.90;;;4.20;99.90;;;;;;4854509;29;22255;-77
2023/11/22 04:41:56;;;;;;;16.63;6.90;;;4.20;99.90;;;;;;4842340;29;20068;-75
2023/11/22 04:44:25;;;;;;;13.57;7.22;;;4.20;99.90;;;;;;4843244;29;20155;-77
2023/11/22 04:46:54;;;;;;;14.80;7.03;;;4.20;99.90;;;;;;4834555;29;20177;-78
2023/11/22 04:49:22;;;;;;;17.63;7.70;;;4.10;99.90;;;;;;4852651;29;20053;-76
2023/11/22 04:51:52;;;;;;;14.18;6.60;;;4.10;99.90;;;;;;4857280;29;20055;-77
2023/11/22 04:54:21;;;;;;;14.07;6.57;;;4.20;99.90;;;;;;4844652;29;20081;-77
2023/11/22 04:56:50;;;;;;;14.38;6.13;;;4.20;99.90;;;;;;4849691;29;20076;-76
2023/11/22 04:59:18;;;;;;;16.33;7.13;;;4.10;99.90;;;;;;4843798;29;20053;-77
2023/11/22 05:01:48;;;;;;;11.00;5.00;;;4.20;99.90;;;;;;4838513;29;20088;-75
2023/11/22 05:04:18;;;;;;;11.52;5.05;;;4.10;99.90;;;;;;4840537;29;20053;-76
2023/11/22 05:06:47;;;;;;;12.32;6.00;;;4.10;99.90;;;;;;4840267;29;20410;-77
2023/11/22 05:09:17;;;;;;;13.95;6.53;;;4.10;99.90;;;;;;4824396;29;20057;-76
2023/11/22 05:11:46;;;;;;;14.05;6.47;;;4.00;99.90;;;;;;4843574;29;20053;-75
2023/11/22 05:14:14;;;;;;;14.93;6.45;;;4.00;99.90;;;;;;4840294;29;20076;-77
2023/11/22 05:16:43;;;;;;;13.40;6.45;;;3.90;99.90;;;;;;4828707;29;20726;-77
2023/11/22 05:19:11;;;;;;;14.68;6.05;;;3.90;99.90;;;;;;4839683;29;20053;-77
2023/11/22 05:21:40;;;;;;;12.13;5.53;;;3.90;99.90;;;;;;4834721;29;20117;-76
2023/11/22 05:24:09;;;;;;;10.18;4.72;;;4.00;99.90;;;;;;4840442;29;20056;-77
2023/11/22 05:26:38;;;;;;;12.75;5.20;;;3.90;99.90;;;;;;4832979;29;20053;-77
2023/11/22 05:29:07;;;;;;;10.55;5.47;;;3.90;99.90;;;;;;4826677;29;20169;-77
2023/11/22 05:31:37;;;;;;;9.75;5.03;;;3.90;99.90;;;;;;4845871;29;20053;-75
2023/11/22 05:34:06;;;;;;;11.23;4.90;;;3.90;99.90;;;;;;4840543;29;20060;-76
2023/11/22 05:36:34;;;;;;;13.63;5.53;;;3.90;99.90;;;;;;4842227;29;20202;-76
2023/11/22 05:39:05;;;;;;;18.17;7.93;;;3.90;99.90;;;;;;4848717;29;20192;-76
2023/11/22 05:41:33;;;;;;;15.32;7.68;;;4.00;99.90;;;;;;4861825;29;20781;-78
2023/11/22 05:44:03;;;;;;;18.35;7.90;;;4.00;99.90;;;;;;4848498;29;20049;-77
2023/11/22 05:46:33;;;;;;;15.98;6.82;;;4.00;99.90;;;;;;4830111;29;20053;-75
2023/11/22 05:49:01;;;;;;;14.00;5.70;;;4.00;99.90;;;;;;4854604;29;20049;-78
2023/11/22 05:51:29;;;;;;;11.85;5.55;;;4.00;99.90;;;;;;4835575;29;20085;-76
2023/11/22 05:53:58;;;;;;;17.05;6.07;;;3.90;99.90;;;;;;4852045;29;20076;-76
2023/11/22 05:56:26;;;;;;;14.25;5.43;;;4.00;99.90;;;;;;4841663;29;20050;-78
2023/11/22 05:58:55;;;;;;;10.38;4.50;;;3.90;99.90;;;;;;4855183;29;20049;-76
2023/11/22 06:01:26;;;;;;;12.77;5.28;;;4.00;99.90;;;;;;4853895;29;20045;-76
2023/11/22 06:03:54;;;;;;;12.57;5.20;;;4.00;99.90;;;;;;4848116;29;20056;-78
2023/11/22 06:06:23;;;;;;;10.48;4.90;;;4.00;99.90;;;;;;4851167;29;20648;-76
2023/11/22 06:09:07;;;;;;;12.10;5.43;;;4.00;99.90;;;;;;4854946;29;20061;-75
2023/11/22 06:11:48;;;;;;;10.05;4.57;;;4.40;99.90;;;;;;4854320;29;20768;-78
2023/11/22 06:14:21;;;;;;;12.73;5.22;;;4.00;99.90;;;;;;4847592;29;20069;-77
2023/11/22 06:16:51;;;;;;;12.10;5.45;;;4.00;99.90;;;;;;4846164;29;20049;-77
2023/11/22 06:19:20;;;;;;;11.75;4.68;;;4.00;99.90;;;;;;4831244;29;20186;-78
2023/11/22 06:21:49;;;;;;;12.48;5.40;;;4.10;99.90;;;;;;4862958;29;20073;-77
2023/11/22 06:24:17;;;;;;;14.82;6.35;;;3.90;99.90;;;;;;4843745;29;20045;-77
2023/11/22 06:26:47;;;;;;;12.85;6.15;;;5.50;99.90;;;;;;4855246;29;20045;-77
2023/11/22 06:29:16;;;;;;;11.60;5.47;;;4.00;99.90;;;;;;4842959;29;20057;-78
2023/11/22 06:31:44;;;;;;;11.60;5.38;;;4.00;99.90;;;;;;4842167;29;20079;-76
2023/11/22 06:34:14;;;;;;;15.65;6.63;;;4.10;99.90;;;;;;4833319;29;20060;-79
2023/11/22 06:36:43;;;;;;;15.35;6.47;;;3.80;99.90;;;;;;4862318;29;20056;-77
2023/11/22 06:39:13;;;;;;;13.07;5.45;;;3.90;99.90;;;;;;4840754;29;20057;-77
2023/11/22 06:41:42;;;;;;;15.98;7.03;;;4.00;99.90;;;;;;4848122;29;20061;-79
2023/11/22 06:44:11;;;;;;;13.02;5.97;;;4.00;99.90;;;;;;4867476;29;21762;-78
2023/11/22 06:46:39;;;;;;;15.70;6.78;;;4.00;99.90;;;;;;4846732;29;20112;-77
2023/11/22 06:49:08;;;;;;;14.07;6.07;;;4.00;99.90;;;;;;4846680;29;22119;-77
2023/11/22 06:51:39;;;;;;;12.40;5.88;;;3.90;99.90;;;;;;4836567;29;20116;-77
2023/11/22 06:54:08;;;;;;;14.13;5.65;;;4.10;99.90;;;;;;4865070;29;20052;-80
2023/11/22 06:56:37;;;;;;;12.13;6.30;;;4.20;99.90;;;;;;4861660;29;20037;-77
2023/11/22 06:59:05;;;;;;;16.38;6.90;;;4.20;99.90;;;;;;4845509;29;20068;-77
2023/11/22 07:01:34;;;;;;;12.10;4.85;;;4.30;99.90;;;;;;4821631;29;20144;-77
2023/11/22 07:04:04;;;;;;;13.63;5.50;;;4.40;99.90;;;;;;4842591;29;20057;-77
2023/11/22 07:06:34;;;;;;;13.80;6.05;;;4.40;99.90;;;;;;4843557;29;21847;-78
2023/11/22 07:09:04;;;;;;;13.85;6.45;;;4.70;99.90;;;;;;4858069;29;20049;-77
2023/11/22 07:11:33;;;;;;;12.32;5.13;;;4.80;99.90;;;;;;4846019;29;20045;-78
2023/11/22 07:14:03;;;;;;;12.65;5.80;;;5.20;99.90;;;;;;4861897;29;20101;-79
2023/11/22 07:16:33;;;;;;;12.15;5.15;;;4.90;99.90;;;;;;4835817;29;20056;-77
2023/11/22 07:19:02;;;;;;;8.63;4.45;;;5.00;99.90;;;;;;4858679;29;20650;-78
2023/11/22 07:21:31;;;;;;;9.65;4.78;;;5.10;99.90;;;;;;4837147;29;20252;-78
2023/11/22 07:24:00;;;;;;;11.88;5.10;;;4.60;99.90;;;;;;4831323;29;20044;-78
2023/11/22 07:26:30;;;;;;;14.32;6.00;;;5.20;99.90;;;;;;4818477;29;20053;-78
2023/11/22 07:28:59;;;;;;;15.40;6.68;;;5.30;99.90;;;;;;4842361;29;20049;-78
2023/11/22 07:31:29;;;;;;;12.38;4.50;;;5.20;99.90;;;;;;4834087;29;20048;-79
2023/11/22 07:33:57;;;;;;;11.70;5.05;;;5.60;99.90;;;;;;4849826;29;20887;-77
2023/11/22 07:36:28;;;;;;;11.00;4.78;;;5.20;99.90;;;;;;4837618;29;20252;-79
2023/11/22 07:38:57;;;;;;;11.57;5.22;;;5.60;99.90;;;;;;4837149;29;20053;-79
2023/11/22 07:41:26;;;;;;;11.55;5.85;;;5.20;99.90;;;;;;4840009;29;20110;-78
2023/11/22 07:43:56;;;;;;;10.27;4.55;;;5.20;99.90;;;;;;4823233;29;20052;-77
2023/11/22 07:46:25;;;;;;;10.35;4.93;;;5.40;99.90;;;;;;4836340;29;20176;-78
2023/11/22 07:48:54;;;;;;;9.75;5.32;;;5.30;99.90;;;;;;4839095;29;20045;-77
2023/11/22 07:51:24;;;;;;;13.27;6.03;;;5.30;99.90;;;;;;4842388;29;20056;-77
2023/11/22 07:53:52;;;;;;;11.02;5.68;;;5.40;99.90;;;;;;4844417;29;20076;-79
2023/11/22 07:56:21;;;;;;;13.10;5.10;;;6.00;99.90;;;;;;4844039;29;20049;-78
2023/11/22 07:58:50;;;;;;;9.10;4.78;;;5.50;99.90;;;;;;4839757;29;20804;-79
2023/11/22 08:01:20;;;;;;;14.10;6.28;;;5.50;99.90;;;;;;4845136;29;20053;-77
2023/11/22 08:03:51;;;;;;;13.90;5.90;;;5.60;99.90;;;;;;4836343;29;20060;-77
2023/11/22 08:06:20;;;;;;;16.92;6.55;;;5.60;99.90;;;;;;4819487;29;20057;-77
2023/11/22 08:08:49;;;;;;;14.50;5.72;;;5.60;99.90;;;;;;4849066;29;20067;-79
2023/11/22 08:11:18;;;;;;;11.50;5.05;;;5.60;99.90;;;;;;4836630;29;20049;-78
2023/11/22 08:13:47;;;;;;;13.48;6.10;;;5.70;99.90;;;;;;4837133;29;20932;-79
2023/11/22 08:16:17;;;;;;;12.40;5.35;;;5.80;99.90;;;;;;4838712;29;20092;-77
2023/11/22 08:18:47;;;;;;;10.73;5.15;;;5.90;99.90;;;;;;4851019;29;20041;-80
2023/11/22 08:21:16;;;;;;;10.57;5.10;;;6.00;99.90;;;;;;4839930;29;20168;-77
2023/11/22 08:23:45;;;;;;;11.35;5.80;;;6.10;99.90;;;;;;4831029;29;20049;-77
2023/11/22 08:26:14;;;;;;;10.88;5.78;;;6.10;99.90;;;;;;4835775;29;20102;-78
2023/11/22 08:28:42;;;;;;;11.65;5.60;;;6.20;99.90;;;;;;4848116;29;20064;-78
2023/11/22 08:31:11;;;;;;;10.35;5.35;;;6.20;99.90;;;;;;4834660;29;20108;-77
2023/11/22 08:33:40;;;;;;;10.50;5.88;;;6.30;99.90;;;;;;4845490;29;20054;-76
2023/11/22 08:36:10;;;;;;;10.90;5.32;;;6.40;99.90;;;;;;4825266;29;20145;-76
2023/11/22 08:38:40;;;;;;;11.98;5.00;;;6.50;99.90;;;;;;4852454;29;22284;-76
2023/11/22 08:41:13;;;;;;;11.68;5.60;;;6.60;99.90;;;;;;4816632;29;20088;-76
2023/11/22 08:43:42;;;;;;;10.38;4.95;;;6.70;99.90;;;;;;4817489;29;22276;-76
2023/11/22 08:46:10;;;;;;;9.93;5.18;;;6.80;99.90;;;;;;4800650;29;20049;-76
2023/11/22 08:48:43;;;;;;;10.75;4.63;;;6.80;99.90;;;;;;4802573;29;20065;-76
2023/11/22 08:51:13;;;;;;;13.75;5.88;;;7.00;99.90;;;;;;4834825;29;20119;-76
2023/11/22 08:53:44;;;;;;;10.27;4.93;;;7.00;99.90;;;;;;4840485;29;20049;-76
2023/11/22 08:56:13;;;;;;;9.68;5.38;;;7.10;99.90;;;;;;4846114;29;20061;-76
2023/11/22 08:58:42;;;;;;;10.73;5.43;;;7.20;99.90;;;;;;4821716;29;20045;-77
2023/11/22 09:01:14;;;;;;;11.05;5.18;;;7.40;99.90;;;;;;4803198;29;20083;-76
2023/11/22 09:03:44;;;;;;;6.65;3.17;;;7.40;99.90;;;;;;4819427;29;20472;-76
2023/11/22 09:06:14;;;;;;;12.57;4.63;;;7.50;99.90;;;;;;4822471;29;20103;-77
2023/11/22 09:08:43;;;;;;;8.93;4.53;;;7.70;99.90;;;;;;4823763;29;20144;-77
2023/11/22 09:11:13;;;;;;;9.10;4.22;;;7.80;99.90;;;;;;4823490;29;20323;-76
2023/11/22 09:13:41;;;;;;;9.02;4.10;;;7.80;99.90;;;;;;4824132;29;22219;-76
2023/11/22 09:16:10;;;;;;;10.15;4.45;;;7.90;99.90;;;;;;4820517;29;20821;-76
2023/11/22 09:18:38;;;;;;;10.32;4.43;;;8.00;99.90;;;;;;4822954;29;20069;-76
2023/11/22 09:21:09;;;;;;;8.52;4.20;;;8.00;99.90;;;;;;4807249;29;20137;-77
2023/11/22 09:23:39;;;;;;;8.90;4.47;;;8.10;99.90;;;;;;4821318;29;20144;-77
2023/11/22 09:26:07;;;;;;;9.35;4.65;;;8.20;99.90;;;;;;4822076;29;20058;-76
2023/11/22 09:28:36;;;;;;;11.30;4.80;;;8.20;99.90;;;;;;4824619;29;20576;-77
2023/11/22 09:31:06;;;;;;;11.00;4.97;;;8.30;99.90;;;;;;4824010;29;20049;-76
2023/11/22 09:33:35;;;;;;;9.18;5.00;;;8.40;99.90;;;;;;4822175;29;20056;-76
2023/11/22 09:36:04;;;;;;;10.15;4.47;;;8.50;99.90;;;;;;4822712;29;20049;-76
2023/11/22 09:38:39;;;;;;;11.93;5.53;;;8.50;99.90;;;;;;4806593;29;20640;-76
2023/11/22 09:41:09;;;;;;;8.65;4.25;;;8.50;99.90;;;;;;4840923;29;20057;-76
2023/11/22 09:43:39;;;;;;;12.98;6.38;;;8.60;99.90;;;;;;4820915;29;21109;-75
2023/11/22 09:46:11;;;;;;;11.00;5.05;;;8.70;99.90;;;;;;4829728;29;20064;-74
2023/11/22 09:48:42;;;;;;;11.88;5.20;;;8.70;99.90;;;;;;4845514;29;20053;-76
2023/11/22 09:51:23;;;;;;;9.95;4.95;;;8.70;99.90;;;;;;4822042;29;20112;-76
2023/11/22 09:53:58;;;;;;;10.77;5.20;;;8.70;99.90;;;;;;4822199;29;20119;-76
2023/11/22 09:56:27;;;;;;;11.30;4.90;;;8.90;99.90;;;;;;4803081;29;20060;-76
2023/11/22 09:59:00;;;;;;;12.20;5.53;;;8.90;99.90;;;;;;4823013;29;20532;-77
2023/11/22 10:01:30;;;;;;;8.63;4.70;;;8.90;99.90;;;;;;4813392;29;20130;-76
2023/11/22 10:04:00;;;;;;;12.50;5.15;;;9.00;99.90;;;;;;4843919;29;20056;-76
2023/11/22 10:06:33;;;;;;;10.27;4.65;;;9.00;99.90;;;;;;4824754;29;20057;-75
2023/11/22 10:09:07;;;;;;;;;;;9.10;99.90;;;;;;4824741;29;20100;-76
2023/11/22 10:11:38;;;;;;;10.27;5.20;;;9.10;99.90;;;;;;4807308;29;19931;-76
2023/11/22 10:14:08;;;;;;;10.90;4.10;;;9.20;99.90;;;;;;4815836;29;20506;-75
2023/11/22 10:16:37;;;;;;;9.80;4.85;;;9.20;99.90;;;;;;4820097;29;20061;-75
2023/11/22 10:19:09;;;;;;;10.27;5.10;;;9.20;99.90;;;;;;4820512;29;20292;-76
2023/11/22 10:21:39;;;;;;;8.25;4.57;;;9.20;99.90;;;;;;4819047;29;20079;-76
2023/11/22 10:24:10;;;;;;;10.82;4.82;;;9.20;99.90;;;;;;4818720;29;20156;-77
2023/11/22 10:26:38;;;;;;;9.43;4.15;;;9.30;99.90;;;;;;4803618;29;20217;-76
2023/11/22 10:29:08;;;;;;;11.05;5.63;;;9.30;99.90;;;;;;4843986;29;20053;-77
2023/11/22 10:31:41;;;;;;;8.25;4.15;;;9.30;99.90;;;;;;4825699;29;20065;-77
2023/11/22 10:34:10;;;;;;;12.63;6.30;;;9.30;99.90;;;;;;4829676;29;20837;-77
2023/11/22 10:36:39;;;;;;;10.50;4.72;;;9.40;99.90;;;;;;4824276;29;20160;-76
2023/11/22 10:39:15;;;;;;;11.40;5.93;;;9.50;99.90;;;;;;4825631;29;20065;-76
2023/11/22 10:41:46;;;;;;;8.98;4.85;;;9.40;99.90;;;;;;4829108;29;20407;-77
2023/11/22 10:44:16;;;;;;;9.55;4.85;;;9.50;99.90;;;;;;4828255;29;20273;-76
2023/11/22 10:46:46;;;;;;;10.63;5.00;;;9.60;99.90;;;;;;4824821;29;20077;-74
2023/11/22 10:49:15;;;;;;;8.88;4.68;;;9.60;99.90;;;;;;4822576;29;20543;-75
2023/11/22 10:51:52;;;;;;;10.95;4.82;;;9.70;99.90;;;;;;4821741;29;20826;-79
2023/11/22 10:54:24;;;;;;;9.88;5.15;;;9.80;99.90;;;;;;4849264;29;22289;-81
2023/11/22 10:56:56;;;;;;;8.52;4.68;;;9.80;99.90;;;;;;4830708;29;20057;-84
2023/11/22 10:59:29;;;;;;;12.10;5.00;;;9.60;99.90;;;;;;4841027;29;20402;-82
2023/11/22 11:02:03;;;;;;;12.25;4.63;;;9.40;99.90;;;;;;4814201;29;22549;-81
2023/11/22 11:04:48;;;;;;;10.13;4.63;;;9.30;99.90;;;;;;4816708;29;20068;-80
2023/11/22 11:07:23;;;;;;;7.95;4.15;;;9.30;99.90;;;;;;4832982;29;20061;-82
2023/11/22 11:09:55;;;;;;;9.07;4.25;;;9.40;99.90;;;;;;4832834;29;20054;-81
2023/11/22 11:12:24;;;;;;;11.90;5.45;;;9.30;99.90;;;;;;4816985;29;20057;-81
2023/11/22 11:14:53;;;;;;;9.05;4.53;;;9.30;99.90;;;;;;4832802;29;20053;-82
2023/11/22 11:17:24;;;;;;;10.75;4.68;;;9.20;99.90;;;;;;4829518;29;20053;-82
2023/11/22 11:19:55;;;;;;;9.88;5.07;;;9.40;99.90;;;;;;4828342;29;22339;-81
2023/11/22 11:22:23;;;;;;;8.95;4.40;;;9.60;99.90;;;;;;4813459;29;20064;-81
2023/11/22 11:25:03;;;;;;;9.93;4.38;;;9.70;99.90;;;;;;4829698;29;20048;-81
2023/11/22 11:27:35;;;;;;;8.48;4.35;;;9.70;99.90;;;;;;4814993;29;20104;-80
2023/11/22 11:30:44;;;;;;;9.18;4.30;;;9.90;99.90;;;;;;4816618;29;20073;-82
2023/11/22 11:33:18;;;;;;;8.23;4.35;;;9.80;99.90;;;;;;4828748;29;24287;-81
2023/11/22 11:35:49;;;;;;;9.80;4.22;;;9.80;99.90;;;;;;4828846;29;20053;-81
2023/11/22 11:38:21;;;;;;;9.98;4.25;;;9.70;99.90;;;;;;4831055;29;20057;-80
2023/11/22 11:40:54;;;;;;;9.55;4.63;;;9.80;99.90;;;;;;4811568;29;20061;-80
2023/11/22 11:43:39;;;;;;;;;;;9.90;99.90;;;;;;4851380;29;22383;-81
2023/11/22 11:46:12;;;;;;;10.38;5.47;;;9.80;99.90;;;;;;4831717;29;19932;-79
2023/11/22 11:48:45;;;;;;;7.95;4.35;;;10.80;99.90;;;;;;4827223;29;20060;-81
2023/11/22 11:51:17;;;;;;;8.38;4.70;;;10.00;99.90;;;;;;4851395;29;20044;-78
2023/11/22 11:53:47;;;;;;;9.05;4.60;;;10.20;99.90;;;;;;4835764;29;20055;-81
2023/11/22 11:56:18;;;;;;;10.10;5.00;;;10.20;99.90;;;;;;4829634;29;20050;-81
2023/11/22 11:58:49;;;;;;;9.80;5.43;;;10.20;99.90;;;;;;4830473;29;20115;-81
2023/11/22 12:01:21;;;;;;;8.00;4.22;;;10.10;99.90;;;;;;4852930;29;20749;-80
2023/11/22 12:03:51;;;;;;;6.47;3.47;;;10.10;99.90;;;;;;4834629;29;20053;-79
2023/11/22 12:06:22;;;;;;;7.75;4.00;;;10.00;99.90;;;;;;4818970;29;20057;-80
2023/11/22 12:08:51;;;;;;;8.77;4.65;;;9.40;99.90;;;;;;4836386;29;20082;-78
2023/11/22 12:11:21;;;;;;;7.07;4.18;;;9.70;99.90;;;;;;4833446;29;20077;-78
2023/11/22 12:13:52;;;;;;;7.65;4.28;;;10.40;99.90;;;;;;4832689;29;20061;-79
2023/11/22 12:16:21;;;;;;;8.43;4.65;;;9.80;99.90;;;;;;4835659;29;20730;-78
2023/11/22 12:18:51;;;;;;;8.68;4.22;;;10.00;99.90;;;;;;4814876;29;20084;-81
2023/11/22 12:21:20;;;;;;;11.60;5.47;;;10.30;99.90;;;;;;4853592;29;20061;-78
2023/11/22 12:23:49;;;;;;;8.93;5.05;;;10.10;99.90;;;;;;4823926;29;20488;-79
2023/11/22 12:26:22;;;;;;;7.88;3.78;;;8.60;99.90;;;;;;4819939;29;20077;-78
2023/11/22 12:28:52;;;;;;;19.92;9.07;;;9.90;99.90;;;;;;4846977;29;20139;-78
2023/11/22 12:31:34;;;;;;;10.55;5.38;;;9.80;99.90;;;;;;4820846;29;20061;-81
2023/11/22 12:34:06;;;;;;;16.93;7.77;;;10.30;99.90;;;;;;4836917;29;20053;-79
2023/11/22 12:36:37;;;;;;;10.77;5.85;;;10.00;99.90;;;;;;4833399;29;20800;-77
2023/11/22 12:39:11;;;;;;;14.30;8.02;;;10.10;99.90;;;;;;4845868;29;20762;-78
2023/11/22 12:41:48;;;;;;;13.88;7.05;;;10.20;99.90;;;;;;4818898;29;20068;-77
2023/11/22 12:44:32;;;;;;;9.52;5.60;;;10.10;99.90;;;;;;4836332;29;20056;-80
2023/11/22 12:47:10;;;;;;;10.00;5.43;;;10.10;99.90;;;;;;4836695;29;20065;-82
2023/11/22 12:49:45;;;;;;;11.65;6.10;;;10.00;99.90;;;;;;4844184;29;20119;-77
2023/11/22 12:52:14;;;;;;;11.60;5.75;;;10.00;99.90;;;;;;4819884;29;20064;-78
2023/11/22 12:54:42;;;;;;;9.10;5.25;;;10.30;99.90;;;;;;4848118;29;20607;-80
2023/11/22 12:57:13;;;;;;;10.25;4.65;;;10.80;99.90;;;;;;4830342;29;20057;-79
2023/11/22 12:59:42;;;;;;;13.55;5.75;;;9.80;99.90;;;;;;4820304;29;20051;-79
2023/11/22 13:02:11;;;;;;;14.85;7.00;;;9.80;99.90;;;;;;4813614;29;20095;-81